createdAt,value
2022-10-15T03:00:53.008Z,1.98
2022-10-15T03:03:20.218Z,1.60
2022-10-15T03:05:47.627Z,1.35
2022-10-15T03:08:14.800Z,1.58
2022-10-15T03:10:42.024Z,1.98
2022-10-15T03:13:09.206Z,4.75
2022-10-15T03:15:37.633Z,1.60
2022-10-15T03:18:05.317Z,1.67
2022-10-15T03:20:32.499Z,1.95
2022-10-15T03:22:59.667Z,1.65
2022-10-15T03:25:26.789Z,1.70
2022-10-15T03:27:53.919Z,1.70
2022-10-15T03:30:21.148Z,1.60
2022-10-15T03:32:48.435Z,1.60
2022-10-15T03:35:15.749Z,1.67
2022-10-15T03:37:42.859Z,1.70
2022-10-15T03:40:13.618Z,1.88
2022-10-15T03:42:41.839Z,1.80
2022-10-15T03:45:09.593Z,1.80
2022-10-15T03:47:36.752Z,1.85
2022-10-15T03:50:04.313Z,1.70
2022-10-15T03:52:31.477Z,1.80
2022-10-15T03:54:58.617Z,1.83
2022-10-15T03:57:26.089Z,1.80
2022-10-15T03:59:53.289Z,1.70
2022-10-15T04:02:20.569Z,1.60
2022-10-15T04:04:47.962Z,2.08
2022-10-15T04:07:15.063Z,1.70
2022-10-15T04:09:42.168Z,1.70
2022-10-15T04:12:09.295Z,1.65
2022-10-15T04:14:36.987Z,1.80
2022-10-15T04:17:04.128Z,1.80
2022-10-15T04:19:31.364Z,1.80
2022-10-15T04:21:58.997Z,1.70
2022-10-15T04:24:26.375Z,1.70
2022-10-15T04:26:53.714Z,1.80
2022-10-15T04:29:20.905Z,1.90
2022-10-15T04:31:48.040Z,2.17
2022-10-15T04:34:15.272Z,2.28
2022-10-15T04:36:42.416Z,1.90
2022-10-15T04:39:12.166Z,1.63
2022-10-15T04:41:41.832Z,1.58
2022-10-15T04:44:09.234Z,1.85
2022-10-15T04:46:36.421Z,1.70
2022-10-15T04:49:03.573Z,2.33
2022-10-15T04:51:30.810Z,2.00
2022-10-15T04:53:57.972Z,3.35
2022-10-15T04:56:25.228Z,1.90
2022-10-15T04:58:52.406Z,2.33
2022-10-15T05:01:21.060Z,2.00
2022-10-15T05:03:49.485Z,1.88
2022-10-15T05:06:20.193Z,1.90
2022-10-15T05:08:48.490Z,1.88
2022-10-15T05:11:18.306Z,1.80
2022-10-15T05:13:46.215Z,2.08
2022-10-15T05:16:17.450Z,1.85
2022-10-15T05:18:46.273Z,2.00
2022-10-15T05:21:14.223Z,1.63
2022-10-15T05:23:41.465Z,2.00
2022-10-15T05:26:16.834Z,2.20
2022-10-15T05:28:44.249Z,1.80
2022-10-15T05:31:18.779Z,1.90
2022-10-15T05:33:47.597Z,1.70
2022-10-15T05:36:23.647Z,2.20
2022-10-15T05:38:53.304Z,2.10
2022-10-15T05:41:21.148Z,1.77
2022-10-15T05:43:50.679Z,2.13
2022-10-15T05:46:19.060Z,1.90
2022-10-15T05:48:53.738Z,2.10
2022-10-15T05:51:21.683Z,2.03
2022-10-15T05:53:52.603Z,1.70
2022-10-15T05:56:19.792Z,2.00
2022-10-15T05:58:47.069Z,1.90
2022-10-15T06:01:14.768Z,1.80
2022-10-15T06:03:42.901Z,2.30
2022-10-15T06:06:17.572Z,2.10
2022-10-15T06:08:44.899Z,2.00
2022-10-15T06:11:12.113Z,2.28
2022-10-15T06:13:40.654Z,2.20
2022-10-15T06:16:09.103Z,1.92
2022-10-15T06:18:38.511Z,2.08
2022-10-15T06:21:07.676Z,1.98
2022-10-15T06:23:35.204Z,2.10
2022-10-15T06:26:09.905Z,2.92
2022-10-15T06:28:38.001Z,2.35
2022-10-15T06:31:06.165Z,1.90
2022-10-15T06:33:33.712Z,2.40
2022-10-15T06:36:02.892Z,2.20
2022-10-15T06:38:30.092Z,2.10
2022-10-15T06:40:57.259Z,1.88
2022-10-15T06:43:24.805Z,2.08
2022-10-15T06:45:51.928Z,2.17
2022-10-15T06:48:19.158Z,2.10
2022-10-15T06:50:46.315Z,2.28
2022-10-15T06:53:13.471Z,2.00
2022-10-15T06:55:40.591Z,1.80
2022-10-15T06:58:14.547Z,1.92
2022-10-15T07:00:41.948Z,2.00
2022-10-15T07:03:09.174Z,2.00
2022-10-15T07:05:36.360Z,2.30
2022-10-15T07:08:03.614Z,2.10
2022-10-15T07:10:30.809Z,2.15
2022-10-15T07:13:00.966Z,1.63
2022-10-15T07:15:29.292Z,2.03
2022-10-15T07:18:01.059Z,1.92
2022-10-15T07:20:30.161Z,2.10
2022-10-15T07:22:59.176Z,1.88
2022-10-15T07:25:27.637Z,1.90
2022-10-15T07:27:55.801Z,1.70
2022-10-15T07:30:23.904Z,1.70
2022-10-15T07:32:51.145Z,2.00
2022-10-15T07:35:18.263Z,1.92
2022-10-15T07:37:47.368Z,1.80
2022-10-15T07:40:14.597Z,1.90
2022-10-15T07:42:42.012Z,1.88
2022-10-15T07:45:09.701Z,1.70
2022-10-15T07:47:36.807Z,2.10
2022-10-15T07:50:04.002Z,1.60
2022-10-15T07:52:31.451Z,1.80
2022-10-15T07:54:58.626Z,1.60
2022-10-15T07:57:25.721Z,1.80
2022-10-15T07:59:52.833Z,1.70
2022-10-15T08:02:21.112Z,1.83
2022-10-15T08:04:48.456Z,1.60
2022-10-15T08:07:15.603Z,1.70
2022-10-15T08:09:42.859Z,1.90
2022-10-15T08:12:10.089Z,2.10
2022-10-15T08:14:37.544Z,1.90
2022-10-15T08:17:05.928Z,1.90
2022-10-15T08:19:33.655Z,1.88
2022-10-15T08:22:01.167Z,2.17
2022-10-15T08:24:30.150Z,2.10
2022-10-15T08:26:58.505Z,1.70
2022-10-15T08:29:25.704Z,1.60
2022-10-15T08:31:52.920Z,1.80
2022-10-15T08:34:20.040Z,2.05
2022-10-15T08:36:47.180Z,1.60
2022-10-15T08:39:14.368Z,1.80
2022-10-15T08:41:54.659Z,1.70
2022-10-15T08:44:50.008Z,2.00
2022-10-15T08:47:34.469Z,1.90
2022-10-15T08:50:17.503Z,1.70
2022-10-15T08:52:48.107Z,1.70
2022-10-15T08:55:18.366Z,1.50
2022-10-15T08:58:08.137Z,1.67
2022-10-15T09:00:54.853Z,1.90
2022-10-15T09:03:37.941Z,1.83
2022-10-15T09:06:30.422Z,1.90
2022-10-15T09:09:03.256Z,1.67
2022-10-15T09:11:45.161Z,1.90
2022-10-15T09:14:16.604Z,2.30
2022-10-15T09:16:47.355Z,1.50
2022-10-15T09:19:26.553Z,1.70
2022-10-15T09:21:54.239Z,2.00
2022-10-15T09:24:27.905Z,2.30
2022-10-15T09:27:04.290Z,1.90
2022-10-15T09:29:36.906Z,1.65
2022-10-15T09:32:12.676Z,3.22
2022-10-15T09:34:54.454Z,2.05
2022-10-15T09:37:36.357Z,1.77
2022-10-15T09:40:28.602Z,1.50
2022-10-15T09:42:58.344Z,1.58
2022-10-15T09:45:25.887Z,1.50
2022-10-15T09:48:00.522Z,1.70
2022-10-15T09:50:40.887Z,2.58
2022-10-15T09:53:17.677Z,1.50
2022-10-15T09:56:13.596Z,1.77
2022-10-15T09:58:47.746Z,1.58
2022-10-15T10:01:20.383Z,2.92
2022-10-15T10:04:09.659Z,1.70
2022-10-15T10:07:02.930Z,1.50
2022-10-15T10:09:33.212Z,1.60
2022-10-15T10:12:16.972Z,1.83
2022-10-15T10:14:53.600Z,1.80
2022-10-15T10:17:23.601Z,1.40
2022-10-15T10:20:03.091Z,1.75
2022-10-15T10:22:30.501Z,2.72
2022-10-15T10:24:57.678Z,1.70
2022-10-15T10:27:28.905Z,1.70
2022-10-15T10:30:01.898Z,4.47
2022-10-15T10:32:34.491Z,1.52
2022-10-15T10:35:04.014Z,1.40
2022-10-15T10:37:42.660Z,1.90
2022-10-15T10:40:24.636Z,1.40
2022-10-15T10:43:28.309Z,1.70
2022-10-15T10:45:58.616Z,1.88
2022-10-15T10:48:47.787Z,1.52
2022-10-15T10:51:19.411Z,1.70
2022-10-15T10:53:51.578Z,1.60
2022-10-15T10:56:27.826Z,1.75
2022-10-15T10:59:04.224Z,1.70
2022-10-15T11:01:31.445Z,1.52
2022-10-15T11:03:58.633Z,1.50
2022-10-15T11:06:32.480Z,1.70
2022-10-15T11:09:36.734Z,1.70
2022-10-15T11:12:18.801Z,1.58
2022-10-15T11:14:54.746Z,1.50
2022-10-15T11:17:30.733Z,1.50
2022-10-15T11:23:27.530Z,1.55
2022-10-15T11:26:15.887Z,1.70
2022-10-15T11:29:07.727Z,1.48
2022-10-15T11:32:13.650Z,1.52
2022-10-15T11:35:52.350Z,1.60
2022-10-15T11:38:57.624Z,2.05
2022-10-15T11:41:48.675Z,1.55
2022-10-15T11:44:54.949Z,2.03
2022-10-15T11:47:39.854Z,1.50
2022-10-15T11:50:44.255Z,1.60
2022-10-15T11:53:25.485Z,1.70
2022-10-15T11:56:05.785Z,1.67
2022-10-15T11:58:40.884Z,1.58
2022-10-15T12:01:23.945Z,1.50
2022-10-15T12:03:56.454Z,1.40
2022-10-15T12:06:28.637Z,1.50
2022-10-15T12:08:57.728Z,1.73
2022-10-15T12:11:48.179Z,1.55
2022-10-15T12:14:38.554Z,1.55
2022-10-15T12:17:30.882Z,1.45
2022-10-15T12:20:12.431Z,1.80
2022-10-15T12:22:41.201Z,1.60
2022-10-15T12:25:34.281Z,1.50
2022-10-15T12:28:01.370Z,1.60
2022-10-15T12:30:34.240Z,2.30
2022-10-15T12:33:03.511Z,1.60
2022-10-15T12:35:37.726Z,1.95
2022-10-15T12:38:32.248Z,1.60
2022-10-15T12:41:03.977Z,1.52
2022-10-15T12:43:33.143Z,1.63
2022-10-15T12:46:03.121Z,1.90
2022-10-15T12:48:39.628Z,1.52
2022-10-15T12:51:21.858Z,1.50
2022-10-15T12:53:54.510Z,1.70
2022-10-15T12:56:35.974Z,1.80
2022-10-15T12:59:03.284Z,1.35
2022-10-15T13:01:51.748Z,1.30
2022-10-15T13:04:19.906Z,1.65
2022-10-15T13:06:47.572Z,1.50
2022-10-15T13:09:28.457Z,1.60
2022-10-15T13:11:58.560Z,1.60
2022-10-15T13:14:37.311Z,1.60
2022-10-15T13:17:14.612Z,1.50
2022-10-15T13:19:52.353Z,4.05
2022-10-15T13:22:25.514Z,1.42
2022-10-15T13:24:52.879Z,1.50
2022-10-15T13:27:24.485Z,1.52
2022-10-15T13:30:05.528Z,1.67
2022-10-15T13:32:45.692Z,1.40
2022-10-15T13:35:18.565Z,1.98
2022-10-15T13:37:46.869Z,1.38
2022-10-15T13:40:23.010Z,1.73
2022-10-15T13:43:15.576Z,1.60
2022-10-15T13:46:15.294Z,1.50
2022-10-15T13:51:14.821Z,1.60
2022-10-15T13:53:42.420Z,1.58
2022-10-15T13:56:25.407Z,1.77
2022-10-15T13:58:53.787Z,2.17
2022-10-15T14:01:23.633Z,1.40
2022-10-15T14:03:53.524Z,1.70
2022-10-15T14:06:21.997Z,2.03
2022-10-15T14:08:52.389Z,1.80
2022-10-15T14:11:19.957Z,1.70
2022-10-15T14:13:52.080Z,1.70
2022-10-15T14:16:30.729Z,1.77
2022-10-15T14:19:20.581Z,1.60
2022-10-15T14:21:52.049Z,1.65
2022-10-15T14:24:28.265Z,1.60
2022-10-15T14:26:55.522Z,2.15
2022-10-15T14:29:29.462Z,1.60
2022-10-15T14:31:56.685Z,1.60
2022-10-15T14:34:28.550Z,1.63
2022-10-15T14:36:55.773Z,1.30
2022-10-15T14:39:31.569Z,1.50
2022-10-15T14:42:01.765Z,1.80
2022-10-15T14:44:43.303Z,1.77
2022-10-15T14:47:20.830Z,1.63
2022-10-15T14:49:49.921Z,1.70
2022-10-15T14:52:20.370Z,1.80
2022-10-15T14:55:00.285Z,1.90
2022-10-15T14:57:30.981Z,1.80
2022-10-15T14:59:58.811Z,1.58
2022-10-15T15:02:28.584Z,1.60
2022-10-15T15:05:13.856Z,1.60
2022-10-15T15:07:41.052Z,1.70
2022-10-15T15:10:09.418Z,1.92
2022-10-15T15:12:39.036Z,1.48
2022-10-15T15:15:17.355Z,2.60
2022-10-15T15:17:45.055Z,2.10
2022-10-15T15:20:12.857Z,1.55
2022-10-15T15:22:41.839Z,1.65
2022-10-15T15:25:21.270Z,2.05
2022-10-15T15:27:48.475Z,1.90
2022-10-15T15:30:21.117Z,1.70
2022-10-15T15:32:48.577Z,1.73
2022-10-15T15:35:26.463Z,1.92
2022-10-15T15:37:53.940Z,1.60
2022-10-15T15:40:21.455Z,1.70
2022-10-15T15:42:50.572Z,1.70
2022-10-15T15:45:24.080Z,1.70
2022-10-15T15:47:51.617Z,1.65
2022-10-15T15:50:20.653Z,1.50
2022-10-15T15:52:48.309Z,1.95
2022-10-15T15:55:15.865Z,1.70
2022-10-15T15:57:43.133Z,1.50
2022-10-15T16:00:10.823Z,1.70
2022-10-15T16:02:38.462Z,1.80
2022-10-15T16:05:08.007Z,1.90
2022-10-15T16:07:35.344Z,1.88
2022-10-15T16:10:06.200Z,2.15
2022-10-15T16:12:36.367Z,3.28
2022-10-15T16:15:03.669Z,3.55
2022-10-15T16:17:30.849Z,3.00
2022-10-15T16:19:57.962Z,2.90
2022-10-15T16:22:25.072Z,3.90
2022-10-15T16:24:52.315Z,3.35
2022-10-15T16:27:19.545Z,2.80
2022-10-15T16:29:46.658Z,5.63
2022-10-15T16:32:16.463Z,26.13
2022-10-15T16:34:43.631Z,32.05
2022-10-15T16:37:10.980Z,24.75
2022-10-15T16:39:38.106Z,13.60
2022-10-15T16:42:05.708Z,21.02
2022-10-15T16:44:32.895Z,22.92
2022-10-15T16:47:00.047Z,18.63
2022-10-15T16:49:27.320Z,13.10
2022-10-15T16:51:54.548Z,6.78
2022-10-15T16:54:21.751Z,4.15
2022-10-15T16:56:52.027Z,3.42
2022-10-15T16:59:20.426Z,2.70
2022-10-15T17:01:47.760Z,3.40
2022-10-15T17:04:15.156Z,4.07
2022-10-15T17:06:42.343Z,3.95
2022-10-15T17:09:09.612Z,4.38
2022-10-15T17:11:39.121Z,4.88
2022-10-15T17:14:09.472Z,4.55
2022-10-15T17:16:39.684Z,4.25
2022-10-15T17:19:07.833Z,3.63
2022-10-15T17:21:36.029Z,3.63
2022-10-15T17:24:05.605Z,3.45
2022-10-15T17:26:41.211Z,3.17
2022-10-15T17:29:13.938Z,3.88
2022-10-15T17:31:41.067Z,3.50
2022-10-15T17:34:11.412Z,3.20
2022-10-15T17:36:45.062Z,3.00
2022-10-15T17:39:15.519Z,3.10
2022-10-15T17:41:42.828Z,3.30
2022-10-15T17:44:11.643Z,3.10
2022-10-15T17:46:39.594Z,3.95
2022-10-15T17:49:09.511Z,2.90
2022-10-15T17:51:36.916Z,2.95
2022-10-15T17:54:04.171Z,2.85
2022-10-15T17:56:33.741Z,2.55
2022-10-15T17:59:03.917Z,2.50
2022-10-15T18:04:22.160Z,7.18
2022-10-15T18:06:49.460Z,5.80
2022-10-15T18:09:17.024Z,4.65
2022-10-15T18:11:46.044Z,4.15
2022-10-15T18:14:13.244Z,4.22
2022-10-15T18:16:40.435Z,5.10
2022-10-15T18:19:07.894Z,4.75
2022-10-15T18:21:35.296Z,5.25
2022-10-15T18:24:02.404Z,4.25
2022-10-15T18:26:29.631Z,3.83
2022-10-15T18:28:56.874Z,3.75
2022-10-15T18:31:26.163Z,3.75
2022-10-15T18:33:55.770Z,3.50
2022-10-15T18:36:28.916Z,3.42
2022-10-15T18:38:57.052Z,3.20
2022-10-15T18:41:29.879Z,3.28
2022-10-15T18:43:59.633Z,4.90
2022-10-15T18:46:30.838Z,3.70
2022-10-15T18:48:58.445Z,3.53
2022-10-15T18:51:26.018Z,3.60
2022-10-15T18:53:53.613Z,3.90
2022-10-15T18:56:22.103Z,3.33
2022-10-15T18:58:49.985Z,4.07
2022-10-15T19:01:27.588Z,3.50
2022-10-15T19:03:56.481Z,3.47
2022-10-15T19:06:26.774Z,5.07
2022-10-15T19:08:57.837Z,6.47
2022-10-15T19:11:25.715Z,4.13
2022-10-15T19:13:52.967Z,3.90
2022-10-15T19:16:20.170Z,4.10
2022-10-15T19:18:47.370Z,4.00
2022-10-15T19:21:14.969Z,3.88
2022-10-15T19:23:42.102Z,5.20
2022-10-15T19:26:10.900Z,5.38
2022-10-15T19:28:38.915Z,8.02
2022-10-15T19:31:07.792Z,9.48
2022-10-15T19:33:35.096Z,15.57
2022-10-15T19:36:02.497Z,8.27
2022-10-15T19:38:29.778Z,5.00
2022-10-15T19:40:56.949Z,4.68
2022-10-15T19:43:24.208Z,4.35
2022-10-15T19:45:51.350Z,4.57
2022-10-15T19:48:19.933Z,4.10
2022-10-15T19:50:47.458Z,5.65
2022-10-15T19:53:16.829Z,4.82
2022-10-15T19:55:54.443Z,4.68
2022-10-15T19:58:24.216Z,4.10
2022-10-15T20:00:53.124Z,3.45
2022-10-15T20:03:21.541Z,4.45
2022-10-15T20:05:49.043Z,4.20
2022-10-15T20:08:16.648Z,4.35
2022-10-15T20:10:45.318Z,5.03
2022-10-15T20:13:13.988Z,3.80
2022-10-15T20:15:42.536Z,4.13
2022-10-15T20:18:09.802Z,3.90
2022-10-15T20:20:39.231Z,6.60
2022-10-15T20:23:06.809Z,4.07
2022-10-15T20:25:37.164Z,4.30
2022-10-15T20:28:04.818Z,4.30
2022-10-15T20:30:32.236Z,4.10
2022-10-15T20:32:59.577Z,6.45
2022-10-15T20:35:26.745Z,4.97
2022-10-15T20:37:53.890Z,4.30
2022-10-15T20:40:21.094Z,4.30
2022-10-15T20:42:48.383Z,4.25
2022-10-15T20:45:16.135Z,4.50
2022-10-15T20:47:48.530Z,4.50
2022-10-15T20:50:28.008Z,4.57
2022-10-15T20:52:57.083Z,4.28
2022-10-15T20:55:24.976Z,4.47
2022-10-15T20:57:52.251Z,4.22
2022-10-15T21:00:19.765Z,4.50
